createdAt,value
2017-06-23T00:00:27.165Z,20.56
2017-06-23T00:01:27.523Z,20.42
2017-06-23T00:02:27.555Z,20.39
2017-06-23T00:03:27.290Z,20.38
2017-06-23T00:04:27.335Z,20.33
2017-06-23T00:05:27.370Z,20.33
2017-06-23T00:06:27.420Z,20.33
2017-06-23T00:07:27.757Z,20.3
2017-06-23T00:08:27.490Z,20.3
2017-06-23T00:09:27.534Z,20.28
2017-06-23T00:10:27.571Z,20.3
2017-06-23T00:11:27.629Z,20.24
2017-06-23T00:12:28.284Z,20.28
2017-06-23T00:13:27.706Z,20.27
2017-06-23T00:14:27.742Z,20.27
2017-06-23T00:15:27.786Z,20.28
2017-06-23T00:16:28.143Z,20.28
2017-06-23T00:17:27.857Z,20.23
2017-06-23T00:18:27.905Z,20.25
2017-06-23T00:19:28.247Z,20.23
2017-06-23T00:20:27.987Z,20.23
2017-06-23T00:21:28.327Z,20.24
2017-06-23T00:22:28.075Z,20.24
2017-06-23T00:23:28.106Z,20.23
2017-06-23T00:24:28.146Z,20.16
2017-06-23T00:25:28.501Z,20.2
2017-06-23T00:26:28.230Z,20.15
2017-06-23T00:27:28.267Z,20.1
2017-06-23T00:28:28.629Z,20.23
2017-06-23T00:29:28.965Z,20.1
2017-06-23T00:30:29.007Z,20.06
2017-06-23T00:31:28.440Z,20.03
2017-06-23T00:32:28.795Z,20.13
2017-06-23T00:33:28.514Z,20.09
2017-06-23T00:34:28.551Z,20.08
2017-06-23T00:35:28.597Z,20.03
2017-06-23T00:36:28.949Z,20.06
2017-06-23T00:37:28.672Z,20.08
2017-06-23T00:38:28.721Z,20.08
2017-06-23T00:39:29.065Z,20.1
2017-06-23T00:40:28.794Z,20
2017-06-23T00:41:29.151Z,20.03
2017-06-23T00:42:29.192Z,20.05
2017-06-23T00:43:28.921Z,20.06
2017-06-23T00:44:28.955Z,20.03
2017-06-23T00:45:29.005Z,20.05
2017-06-23T00:46:29.354Z,20.03
2017-06-23T00:47:29.083Z,20.06
2017-06-23T00:48:29.134Z,19.93
2017-06-23T00:49:29.161Z,19.98
2017-06-23T00:50:29.209Z,20.05
2017-06-23T00:51:29.556Z,19.93
2017-06-23T00:52:29.288Z,20.08
2017-06-23T00:53:29.337Z,19.95
2017-06-23T00:54:29.365Z,20.02
2017-06-23T00:55:29.402Z,20.08
2017-06-23T00:56:29.761Z,20.02
2017-06-23T00:57:29.492Z,20.03
2017-06-23T00:58:29.525Z,19.9
2017-06-23T00:59:29.575Z,19.93
2017-06-23T01:00:29.609Z,19.94
2017-06-23T01:01:29.954Z,19.93
2017-06-23T01:02:29.695Z,19.97
2017-06-23T01:03:29.728Z,19.97
2017-06-23T01:04:29.779Z,19.95
2017-06-23T01:05:29.813Z,19.91
2017-06-23T01:06:29.850Z,20.02
2017-06-23T01:07:29.907Z,19.95
2017-06-23T01:08:29.932Z,19.97
2017-06-23T01:09:29.973Z,19.91
2017-06-23T01:10:30.019Z,19.98
2017-06-23T01:11:30.280Z,19.91
2017-06-23T01:12:30.094Z,19.95
2017-06-23T01:13:30.141Z,20.02
2017-06-23T01:14:30.176Z,20.03
2017-06-23T01:15:30.223Z,20.08
2017-06-23T01:16:30.264Z,20.06
2017-06-23T01:17:30.525Z,20.03
2017-06-23T01:18:30.339Z,20.05
2017-06-23T01:19:30.696Z,20.09
2017-06-23T01:20:30.420Z,20.12
2017-06-23T01:21:30.468Z,20.16
2017-06-23T01:22:30.532Z,20.15
2017-06-23T01:23:30.546Z,20.18
2017-06-23T01:24:30.582Z,20.1
2017-06-23T01:25:30.625Z,20.18
2017-06-23T01:26:30.674Z,20.03
2017-06-23T01:27:30.708Z,20.13
2017-06-23T01:28:30.740Z,20.2
2017-06-23T01:29:30.793Z,20.12
2017-06-23T01:30:31.146Z,20.08
2017-06-23T01:31:30.869Z,20.16
2017-06-23T01:32:31.220Z,20.18
2017-06-23T01:33:30.953Z,20.03
2017-06-23T01:34:30.986Z,20.06
2017-06-23T01:35:31.349Z,20.1
2017-06-23T01:36:31.077Z,20.05
2017-06-23T01:37:31.111Z,20.03
2017-06-23T01:38:31.168Z,20.1
2017-06-23T01:39:31.199Z,20.23
2017-06-23T01:40:31.237Z,20.16
2017-06-23T01:41:31.280Z,20.13
2017-06-23T01:42:31.323Z,20.18
2017-06-23T01:43:31.352Z,20.16
2017-06-23T01:44:31.701Z,20.16
2017-06-23T01:45:31.439Z,20.16
2017-06-23T01:46:31.489Z,20.15
2017-06-23T01:47:31.513Z,20.13
2017-06-23T01:48:31.876Z,20.03
2017-06-23T01:49:31.598Z,20.06
2017-06-23T01:50:31.645Z,20.02
2017-06-23T01:51:31.685Z,20.08
2017-06-23T01:52:32.023Z,20.06
2017-06-23T01:53:31.767Z,19.93
2017-06-23T01:54:31.805Z,19.91
2017-06-23T01:55:31.849Z,19.98
2017-06-23T01:56:31.889Z,19.88
2017-06-23T01:57:31.934Z,19.91
2017-06-23T01:58:32.268Z,19.88
2017-06-23T01:59:32.005Z,19.88
2017-06-23T02:00:32.044Z,19.86
2017-06-23T02:01:32.084Z,19.83
2017-06-23T02:02:32.430Z,19.9
2017-06-23T02:03:32.485Z,19.79
2017-06-23T02:04:32.206Z,19.93
2017-06-23T02:05:32.560Z,19.86
2017-06-23T02:06:32.288Z,19.84
2017-06-23T02:07:32.325Z,19.8
2017-06-23T02:08:32.367Z,19.84
2017-06-23T02:09:32.725Z,19.76
2017-06-23T02:10:32.759Z,19.76
2017-06-23T02:11:32.803Z,19.78
2017-06-23T02:12:32.534Z,19.78
2017-06-23T02:13:32.576Z,19.76
2017-06-23T02:14:32.924Z,19.73
2017-06-23T02:15:32.656Z,19.72
2017-06-23T02:16:32.691Z,19.7
2017-06-23T02:17:33.046Z,19.7
2017-06-23T02:18:32.771Z,19.69
2017-06-23T02:19:32.819Z,19.65
2017-06-23T02:20:33.160Z,19.73
2017-06-23T02:21:33.222Z,19.69
2017-06-23T02:22:32.939Z,19.65
2017-06-23T02:23:32.973Z,19.61
2017-06-23T02:24:33.022Z,19.61
2017-06-23T02:25:33.057Z,19.66
2017-06-23T02:26:33.102Z,19.69
2017-06-23T02:27:33.138Z,19.61
2017-06-23T02:28:33.175Z,19.63
2017-06-23T02:29:33.531Z,19.61
2017-06-23T02:30:33.263Z,19.65
2017-06-23T02:31:33.296Z,19.55
2017-06-23T02:32:33.342Z,19.51
2017-06-23T02:33:33.685Z,19.6
2017-06-23T02:34:33.736Z,19.53
2017-06-23T02:35:33.465Z,19.54
2017-06-23T02:36:33.507Z,19.54
2017-06-23T02:37:33.547Z,19.43
2017-06-23T02:38:33.578Z,19.42
2017-06-23T02:39:33.941Z,19.48
2017-06-23T02:40:33.658Z,19.42
2017-06-23T02:41:34.015Z,19.36
2017-06-23T02:42:33.745Z,19.4
2017-06-23T02:43:33.781Z,19.35
2017-06-23T02:44:33.829Z,19.36
2017-06-23T02:45:33.870Z,19.32
2017-06-23T02:46:33.903Z,19.36
2017-06-23T02:47:34.258Z,19.46
2017-06-23T02:48:33.983Z,19.43
2017-06-23T02:49:34.338Z,19.5
2017-06-23T02:50:34.371Z,19.54
2017-06-23T02:51:34.423Z,19.51
2017-06-23T02:52:34.152Z,19.58
2017-06-23T02:53:34.185Z,19.53
2017-06-23T02:54:34.231Z,19.57
2017-06-23T02:55:34.889Z,19.54
2017-06-23T02:56:34.314Z,19.55
2017-06-23T02:57:34.347Z,19.61
2017-06-23T02:58:34.386Z,19.6
2017-06-23T02:59:34.742Z,19.53
2017-06-23T03:00:34.465Z,19.55
2017-06-23T03:01:34.822Z,19.53
2017-06-23T03:02:34.571Z,19.51
2017-06-23T03:03:34.601Z,19.5
2017-06-23T03:04:34.628Z,19.57
2017-06-23T03:05:34.983Z,19.53
2017-06-23T03:06:34.711Z,19.58
2017-06-23T03:07:34.755Z,19.38
2017-06-23T03:08:34.794Z,19.39
2017-06-23T03:09:35.134Z,19.46
2017-06-23T03:10:35.184Z,19.46
2017-06-23T03:11:34.926Z,19.48
2017-06-23T03:12:34.963Z,19.5
2017-06-23T03:13:34.994Z,19.53
2017-06-23T03:14:35.335Z,19.48
2017-06-23T03:15:35.075Z,19.51
2017-06-23T03:16:35.124Z,19.57
2017-06-23T03:17:35.150Z,19.5
2017-06-23T03:18:35.198Z,19.58
2017-06-23T03:19:35.538Z,19.58
2017-06-23T03:20:35.587Z,19.57
2017-06-23T03:21:35.618Z,19.6
2017-06-23T03:22:35.381Z,19.61
2017-06-23T03:23:35.394Z,19.57
2017-06-23T03:24:35.439Z,19.6
2017-06-23T03:25:36.026Z,19.55
2017-06-23T03:26:35.513Z,19.63
2017-06-23T03:27:35.862Z,19.61
2017-06-23T03:28:35.599Z,19.63
2017-06-23T03:29:36.267Z,19.6
2017-06-23T03:30:35.681Z,19.66
2017-06-23T03:31:36.344Z,19.63
2017-06-23T03:32:35.758Z,19.58
2017-06-23T03:33:36.132Z,19.68
2017-06-23T03:34:35.845Z,19.68
2017-06-23T03:35:35.888Z,19.6
2017-06-23T03:36:36.232Z,19.63
2017-06-23T03:37:35.971Z,19.69
2017-06-23T03:38:36.025Z,19.68
2017-06-23T03:39:36.349Z,19.69
2017-06-23T03:40:36.084Z,19.78
2017-06-23T03:41:36.440Z,19.7
2017-06-23T03:42:36.159Z,19.78
2017-06-23T03:43:36.224Z,19.76
2017-06-23T03:44:36.549Z,19.69
2017-06-23T03:45:36.280Z,19.69
2017-06-23T03:46:36.320Z,19.72
2017-06-23T03:47:36.669Z,19.72
2017-06-23T03:48:36.413Z,19.78
2017-06-23T03:49:36.442Z,19.76
2017-06-23T03:50:36.491Z,19.7
2017-06-23T03:51:36.531Z,19.76
2017-06-23T03:52:36.565Z,19.78
2017-06-23T03:53:36.612Z,19.79
2017-06-23T03:54:36.645Z,19.84
2017-06-23T03:55:36.688Z,19.75
2017-06-23T03:56:37.358Z,19.8
2017-06-23T03:57:36.766Z,19.84
2017-06-23T03:58:36.818Z,19.78
2017-06-23T03:59:36.853Z,19.78
2017-06-23T04:00:37.199Z,19.78
2017-06-23T04:01:36.937Z,19.87
2017-06-23T04:02:37.276Z,19.83
2017-06-23T04:03:37.027Z,19.79
2017-06-23T04:04:37.057Z,19.78
2017-06-23T04:05:37.099Z,19.88
2017-06-23T04:06:37.132Z,19.79
2017-06-23T04:07:37.182Z,19.83
2017-06-23T04:08:37.525Z,19.84
2017-06-23T04:09:37.253Z,19.84
2017-06-23T04:10:37.301Z,19.86
2017-06-23T04:11:37.649Z,19.87
2017-06-23T04:12:37.373Z,19.88
2017-06-23T04:13:37.427Z,19.93
2017-06-23T04:14:37.460Z,19.97
2017-06-23T04:15:37.497Z,19.98
2017-06-23T04:16:37.850Z,19.94
2017-06-23T04:17:37.897Z,19.91
2017-06-23T04:18:37.624Z,19.93
2017-06-23T04:19:37.669Z,19.93
2017-06-23T04:20:37.698Z,19.9
2017-06-23T04:21:37.752Z,20.02
2017-06-23T04:22:38.092Z,20.03
2017-06-23T04:23:37.827Z,20.03
2017-06-23T04:24:38.168Z,20.16
2017-06-23T04:25:37.904Z,20.24
2017-06-23T04:26:37.952Z,20.39
2017-06-23T04:27:37.992Z,20.51
2017-06-23T04:28:38.333Z,20.62
2017-06-23T04:29:38.382Z,20.74
2017-06-23T04:30:38.115Z,20.86
2017-06-23T04:31:38.474Z,21.13
2017-06-23T04:32:38.204Z,21.35
2017-06-23T04:33:38.549Z,21.66
2017-06-23T04:34:38.278Z,22.06
2017-06-23T04:35:38.623Z,22.35
2017-06-23T04:36:38.677Z,22.57
2017-06-23T04:37:38.703Z,22.75
2017-06-23T04:38:39.070Z,22.89
2017-06-23T04:39:38.489Z,23.17
2017-06-23T04:40:38.839Z,23.35
2017-06-23T04:41:38.575Z,23.42
2017-06-23T04:42:39.219Z,23.5
2017-06-23T04:43:38.656Z,23.57
2017-06-23T04:44:38.699Z,23.55
2017-06-23T04:45:38.734Z,23.52
2017-06-23T04:46:38.780Z,23.65
2017-06-23T04:47:39.134Z,23.75
2017-06-23T04:48:38.886Z,23.89
2017-06-23T04:49:38.939Z,24.1
2017-06-23T04:50:38.946Z,24.05
2017-06-23T04:51:38.998Z,23.76
2017-06-23T04:52:39.341Z,23.6
2017-06-23T04:53:39.385Z,23.31
2017-06-23T04:54:39.117Z,23.14
2017-06-23T04:55:39.783Z,22.89
2017-06-23T04:56:39.212Z,22.6
2017-06-23T04:57:39.243Z,22.62
2017-06-23T04:58:39.297Z,22.41
2017-06-23T04:59:39.328Z,22.31
2017-06-23T05:00:39.379Z,22.27
2017-06-23T05:01:39.414Z,22.2
2017-06-23T05:02:39.762Z,22.27
2017-06-23T05:03:39.497Z,22.28
2017-06-23T05:04:39.848Z,22.5
2017-06-23T05:05:40.213Z,22.57
2017-06-23T05:06:39.931Z,22.92
2017-06-23T05:07:39.676Z,22.99
2017-06-23T05:08:39.709Z,22.89
2017-06-23T05:09:39.754Z,22.89
2017-06-23T05:10:39.794Z,22.77
2017-06-23T05:11:39.839Z,22.6
2017-06-23T05:12:39.913Z,22.53
2017-06-23T05:13:40.234Z,22.46
2017-06-23T05:14:40.031Z,22.34
2017-06-23T05:15:40.017Z,22.12
2017-06-23T05:16:40.051Z,22.07
2017-06-23T05:17:40.089Z,21.95
2017-06-23T05:18:40.452Z,21.83
2017-06-23T05:19:40.493Z,21.71
2017-06-23T05:20:40.526Z,21.61
2017-06-23T05:21:40.574Z,21.59
2017-06-23T05:22:40.630Z,21.46
2017-06-23T05:23:40.660Z,21.44
2017-06-23T05:24:40.392Z,21.38
2017-06-23T05:25:41.079Z,21.36
2017-06-23T05:26:40.468Z,21.36
2017-06-23T05:27:41.150Z,21.54
2017-06-23T05:28:41.179Z,21.54
2017-06-23T05:29:40.596Z,21.6
2017-06-23T05:30:40.959Z,21.75
2017-06-23T05:31:40.685Z,21.85
2017-06-23T05:32:40.716Z,21.97
2017-06-23T05:33:41.074Z,22.04
2017-06-23T05:34:41.106Z,22.12
2017-06-23T05:35:40.849Z,22.17
2017-06-23T05:36:43.718Z,22.25
2017-06-23T05:37:44.230Z,22.27
2017-06-23T05:38:40.992Z,22.29
2017-06-23T05:39:41.068Z,22.43
2017-06-23T05:40:41.357Z,22.46
2017-06-23T05:41:41.093Z,22.53
2017-06-23T05:42:41.134Z,22.6
2017-06-23T05:43:46.398Z,22.64
2017-06-23T05:44:41.220Z,22.62
2017-06-23T05:45:41.262Z,22.59
2017-06-23T05:46:42.492Z,22.62
2017-06-23T05:47:41.618Z,22.62
2017-06-23T05:48:41.894Z,22.62
2017-06-23T05:49:41.752Z,22.52
2017-06-23T05:50:41.470Z,22.49
2017-06-23T05:51:41.635Z,22.52
2017-06-23T05:52:41.560Z,22.44
2017-06-23T05:53:41.606Z,22.31
2017-06-23T05:54:41.641Z,22.23
2017-06-23T05:55:41.685Z,22.09
2017-06-23T05:56:41.722Z,22.09
2017-06-23T05:57:42.164Z,21.92
2017-06-23T05:58:42.183Z,21.81
2017-06-23T05:59:42.175Z,21.82
2017-06-23T06:00:41.892Z,21.74
2017-06-23T06:01:41.935Z,21.63
2017-06-23T06:02:41.976Z,21.56
2017-06-23T06:03:42.631Z,21.36
2017-06-23T06:04:42.058Z,21.39
2017-06-23T06:05:42.110Z,21.34
2017-06-23T06:06:42.149Z,21.34
2017-06-23T06:07:42.490Z,21.34
2017-06-23T06:08:42.226Z,21.38
2017-06-23T06:09:42.434Z,21.35
2017-06-23T06:10:42.308Z,21.34
2017-06-23T06:11:42.348Z,21.34
2017-06-23T06:12:42.708Z,21.21
2017-06-23T06:13:42.525Z,21.32
2017-06-23T06:14:42.477Z,21.2
2017-06-23T06:15:42.826Z,21.23
2017-06-23T06:16:42.918Z,21.3
2017-06-23T06:17:42.609Z,21.35
2017-06-23T06:18:42.957Z,21.3
2017-06-23T06:19:42.795Z,21.36
2017-06-23T06:20:42.727Z,21.39
2017-06-23T06:21:43.083Z,21.39
2017-06-23T06:22:42.806Z,21.39
2017-06-23T06:23:42.856Z,21.41
2017-06-23T06:24:42.899Z,21.44
2017-06-23T06:25:42.939Z,21.46
2017-06-23T06:26:43.292Z,21.48
2017-06-23T06:27:43.018Z,21.61
2017-06-23T06:28:43.062Z,21.48
2017-06-23T06:29:43.408Z,21.5
2017-06-23T06:30:43.146Z,21.6
2017-06-23T06:31:43.196Z,21.53
2017-06-23T06:32:43.229Z,21.46
2017-06-23T06:33:43.273Z,21.32
2017-06-23T06:34:43.314Z,21.34
2017-06-23T06:35:43.670Z,21.11
2017-06-23T06:36:43.398Z,20.95
2017-06-23T06:37:43.439Z,20.98
2017-06-23T06:38:44.095Z,20.81
2017-06-23T06:39:43.831Z,20.84
2017-06-23T06:40:43.863Z,20.74
2017-06-23T06:41:43.594Z,20.77
2017-06-23T06:42:43.638Z,20.74
2017-06-23T06:43:43.685Z,20.76
2017-06-23T06:44:43.728Z,20.74
2017-06-23T06:45:43.766Z,20.69
2017-06-23T06:46:44.119Z,20.79
2017-06-23T06:47:43.843Z,20.76
2017-06-23T06:48:44.190Z,20.66
2017-06-23T06:49:43.932Z,20.69
2017-06-23T06:50:43.967Z,20.61
2017-06-23T06:51:44.008Z,20.54
2017-06-23T06:52:44.057Z,20.62
2017-06-23T06:53:44.089Z,20.62
2017-06-23T06:54:44.441Z,20.61
2017-06-23T06:55:44.176Z,20.62
2017-06-23T06:56:44.214Z,20.61
2017-06-23T06:57:44.255Z,20.58
2017-06-23T06:58:44.299Z,20.59
2017-06-23T06:59:44.345Z,20.62
2017-06-23T07:00:44.379Z,20.62
2017-06-23T07:01:45.110Z,20.54
2017-06-23T07:02:44.463Z,20.59
2017-06-23T07:03:44.813Z,20.59
2017-06-23T07:04:44.652Z,20.56
2017-06-23T07:05:45.197Z,20.59
2017-06-23T07:06:44.956Z,20.59
2017-06-23T07:07:44.958Z,20.56
2017-06-23T07:08:45.040Z,20.62
2017-06-23T07:09:45.382Z,20.69
2017-06-23T07:10:44.839Z,20.68
2017-06-23T07:11:45.422Z,20.72
2017-06-23T07:12:44.871Z,20.77
2017-06-23T07:13:45.238Z,20.68
2017-06-23T07:14:44.962Z,20.74
2017-06-23T07:15:44.997Z,20.74
2017-06-23T07:16:45.045Z,20.72
2017-06-23T07:17:45.083Z,20.81
2017-06-23T07:18:45.124Z,20.76
2017-06-23T07:19:45.162Z,20.84
2017-06-23T07:20:45.525Z,20.74
2017-06-23T07:21:45.869Z,20.79
2017-06-23T07:22:45.285Z,20.74
2017-06-23T07:23:45.674Z,20.76
2017-06-23T07:24:45.468Z,20.71
2017-06-23T07:25:45.415Z,20.8
2017-06-23T07:26:45.458Z,20.84
2017-06-23T07:27:45.801Z,20.76
2017-06-23T07:28:45.860Z,20.83
2017-06-23T07:29:45.576Z,20.89
2017-06-23T07:30:45.933Z,21.01
2017-06-23T07:31:45.748Z,21.05
2017-06-23T07:32:45.712Z,20.99
2017-06-23T07:33:46.054Z,21.11
2017-06-23T07:34:45.916Z,21.11
2017-06-23T07:35:46.146Z,21.24
2017-06-23T07:36:46.362Z,21.19
2017-06-23T07:37:45.913Z,21.21
2017-06-23T07:38:45.958Z,21.35
2017-06-23T07:39:46.299Z,21.38
2017-06-23T07:40:46.040Z,21.35
2017-06-23T07:41:46.072Z,21.32
2017-06-23T07:42:46.114Z,21.26
2017-06-23T07:43:46.471Z,21.3
2017-06-23T07:44:46.194Z,21.21
2017-06-23T07:45:46.244Z,21.26
2017-06-23T07:46:46.982Z,21.17
2017-06-23T07:47:46.628Z,21.19
2017-06-23T07:48:46.369Z,21.14
2017-06-23T07:49:46.412Z,21.16
2017-06-23T07:50:46.448Z,21.13
2017-06-23T07:51:46.490Z,21.19
2017-06-23T07:52:46.625Z,21.13
2017-06-23T07:53:46.578Z,21.16
2017-06-23T07:54:46.646Z,21.2
2017-06-23T07:55:46.651Z,21.17
2017-06-23T07:56:47.311Z,21.21
2017-06-23T07:57:47.075Z,21.21
2017-06-23T07:58:46.783Z,21.21
2017-06-23T07:59:46.829Z,21.21
2017-06-23T08:00:46.881Z,21.24
2017-06-23T08:01:47.215Z,21.17
2017-06-23T08:02:46.943Z,21.23
2017-06-23T08:03:46.986Z,21.27
2017-06-23T08:04:47.349Z,21.21
2017-06-23T08:05:47.078Z,21.38
2017-06-23T08:06:47.123Z,21.36
2017-06-23T08:07:47.158Z,21.42
2017-06-23T08:08:47.533Z,21.5
2017-06-23T08:09:47.242Z,21.57
2017-06-23T08:10:47.289Z,21.59
2017-06-23T08:11:47.636Z,21.61
2017-06-23T08:12:47.680Z,21.61
2017-06-23T08:13:47.403Z,21.66
2017-06-23T08:14:47.444Z,21.63
2017-06-23T08:15:47.500Z,21.63
2017-06-23T08:16:47.537Z,21.64
2017-06-23T08:17:47.575Z,21.66
2017-06-23T08:18:47.928Z,21.64
2017-06-23T08:19:48.987Z,21.61
2017-06-23T08:20:48.606Z,21.74
2017-06-23T08:21:48.270Z,21.74
2017-06-23T08:22:48.087Z,21.85
2017-06-23T08:23:47.823Z,21.92
2017-06-23T08:24:47.862Z,21.85
2017-06-23T08:25:47.908Z,21.79
2017-06-23T08:26:47.949Z,21.94
2017-06-23T08:27:47.995Z,21.94
2017-06-23T08:28:48.437Z,21.82
2017-06-23T08:29:48.387Z,21.85
2017-06-23T08:30:48.116Z,21.81
2017-06-23T08:31:48.467Z,21.97
2017-06-23T08:32:48.197Z,21.95
2017-06-23T08:33:48.234Z,22.01
2017-06-23T08:34:48.283Z,22.04
2017-06-23T08:35:48.323Z,22.02
2017-06-23T08:36:48.680Z,22.14
2017-06-23T08:37:48.722Z,22.16
2017-06-23T08:38:48.453Z,22.16
2017-06-23T08:39:48.492Z,22.27
2017-06-23T08:40:48.542Z,22.31
2017-06-23T08:41:48.897Z,22.31
2017-06-23T08:42:48.630Z,22.25
2017-06-23T08:43:48.961Z,22.37
2017-06-23T08:44:48.766Z,22.29
2017-06-23T08:45:48.740Z,22.1
2017-06-23T08:46:48.785Z,22.1
2017-06-23T08:47:48.830Z,21.88
2017-06-23T08:48:49.182Z,21.78
2017-06-23T08:49:48.908Z,21.74
2017-06-23T08:50:49.257Z,21.66
2017-06-23T08:51:48.994Z,21.63
2017-06-23T08:52:49.034Z,21.57
2017-06-23T08:53:49.072Z,21.64
2017-06-23T08:54:49.153Z,21.57
2017-06-23T08:55:49.159Z,21.54
2017-06-23T08:56:49.516Z,21.54
2017-06-23T08:57:49.241Z,21.5
2017-06-23T08:58:49.283Z,21.53
2017-06-23T08:59:49.799Z,21.56
2017-06-23T09:00:49.378Z,21.51
2017-06-23T09:01:49.410Z,21.53
2017-06-23T09:02:49.761Z,21.54
2017-06-23T09:03:49.501Z,21.5
2017-06-23T09:04:49.542Z,21.48
2017-06-23T09:05:49.578Z,21.53
2017-06-23T09:06:50.003Z,21.56
2017-06-23T09:07:50.144Z,21.54
2017-06-23T09:08:49.700Z,21.5
2017-06-23T09:09:49.754Z,21.5
2017-06-23T09:10:49.834Z,21.63
2017-06-23T09:11:49.846Z,21.6
2017-06-23T09:12:50.180Z,21.63
2017-06-23T09:13:49.923Z,21.69
2017-06-23T09:14:49.960Z,21.72
2017-06-23T09:15:49.999Z,21.76
2017-06-23T09:16:50.356Z,21.78
2017-06-23T09:17:50.391Z,21.76
2017-06-23T09:18:50.125Z,21.85
2017-06-23T09:19:50.481Z,21.97
2017-06-23T09:20:50.215Z,21.94
2017-06-23T09:21:50.561Z,21.97
2017-06-23T09:22:50.294Z,21.97
2017-06-23T09:23:50.336Z,22.01
2017-06-23T09:24:50.384Z,21.98
2017-06-23T09:25:50.422Z,22.02
2017-06-23T09:26:50.771Z,21.97
2017-06-23T09:27:50.510Z,21.94
2017-06-23T09:28:50.552Z,21.98
2017-06-23T09:29:50.901Z,21.97
2017-06-23T09:30:50.641Z,21.91
2017-06-23T09:31:50.734Z,22.01
2017-06-23T09:32:50.724Z,22.06
2017-06-23T09:33:50.757Z,22.06
2017-06-23T09:34:51.117Z,22.04
2017-06-23T09:35:51.153Z,22.12
2017-06-23T09:36:50.887Z,22.19
2017-06-23T09:37:50.929Z,22.16
2017-06-23T09:38:51.282Z,22.13
2017-06-23T09:39:51.024Z,22.29
2017-06-23T09:40:51.380Z,22.28
2017-06-23T09:41:51.109Z,22.38
2017-06-23T09:42:51.151Z,22.32
2017-06-23T09:43:51.503Z,22.29
2017-06-23T09:44:51.542Z,22.41
2017-06-23T09:45:51.275Z,22.37
2017-06-23T09:46:51.624Z,22.35
2017-06-23T09:47:51.359Z,22.39
2017-06-23T09:48:51.398Z,22.49
2017-06-23T09:49:51.758Z,22.6
2017-06-23T09:50:51.800Z,22.52
2017-06-23T09:51:51.840Z,22.59
2017-06-23T09:52:52.191Z,22.56
2017-06-23T09:53:51.620Z,22.62
2017-06-23T09:54:51.963Z,22.67
2017-06-23T09:55:51.701Z,22.56
2017-06-23T09:56:52.060Z,22.68
2017-06-23T09:57:51.787Z,22.75
2017-06-23T09:58:51.834Z,22.78
2017-06-23T09:59:51.889Z,22.92
2017-06-23T10:00:51.919Z,22.97
2017-06-23T10:01:51.959Z,22.97
2017-06-23T10:02:52.303Z,23.05
2017-06-23T10:03:52.043Z,23.11
2017-06-23T10:04:52.391Z,23.07
2017-06-23T10:05:52.134Z,23.12
2017-06-23T10:06:52.179Z,23.17
2017-06-23T10:07:52.228Z,23.23
2017-06-23T10:08:52.275Z,23.17
2017-06-23T10:09:52.919Z,23.26
2017-06-23T10:10:52.351Z,23.22
2017-06-23T10:11:52.394Z,23.23
2017-06-23T10:12:52.435Z,23.17
2017-06-23T10:13:52.475Z,23.2
2017-06-23T10:14:52.515Z,23.12
2017-06-23T10:15:52.572Z,23.27
2017-06-23T10:16:52.607Z,23.27
2017-06-23T10:17:52.647Z,23.26
2017-06-23T10:18:52.709Z,23.22
2017-06-23T10:19:53.049Z,23.26
2017-06-23T10:20:52.787Z,23.32
2017-06-23T10:21:52.832Z,23.27
2017-06-23T10:22:53.404Z,23.26
2017-06-23T10:23:52.913Z,23.12
2017-06-23T10:24:52.959Z,23.07
2017-06-23T10:25:52.996Z,22.97
2017-06-23T10:26:53.043Z,22.92
2017-06-23T10:27:53.398Z,22.83
2017-06-23T10:28:53.437Z,22.78
2017-06-23T10:29:53.175Z,22.74
2017-06-23T10:30:53.211Z,22.64
2017-06-23T10:31:53.250Z,22.6
2017-06-23T10:32:53.294Z,22.72
2017-06-23T10:33:53.339Z,22.6
2017-06-23T10:34:53.384Z,22.6
2017-06-23T10:35:53.430Z,22.6
2017-06-23T10:36:53.477Z,22.6
2017-06-23T10:37:53.510Z,22.59
2017-06-23T10:38:53.550Z,22.62
2017-06-23T10:39:53.591Z,22.53
2017-06-23T10:40:53.638Z,22.69
2017-06-23T10:41:54.000Z,22.68
2017-06-23T10:42:54.038Z,22.69
2017-06-23T10:43:54.073Z,22.78
2017-06-23T10:44:53.811Z,22.93
2017-06-23T10:45:53.852Z,22.86
2017-06-23T10:46:53.907Z,22.92
2017-06-23T10:47:53.940Z,23.07
2017-06-23T10:48:54.291Z,23.02
2017-06-23T10:49:54.032Z,23.22
2017-06-23T10:50:54.072Z,23.32
2017-06-23T10:51:54.109Z,23.38
2017-06-23T10:52:54.161Z,23.58
2017-06-23T10:53:54.197Z,23.5
2017-06-23T10:54:54.237Z,23.67
2017-06-23T10:55:54.596Z,23.77
2017-06-23T10:56:54.330Z,23.87
2017-06-23T10:57:54.371Z,23.89
2017-06-23T10:58:54.419Z,24.04
2017-06-23T10:59:54.774Z,24.02
2017-06-23T11:00:54.814Z,24.04
2017-06-23T11:01:54.621Z,24.17
2017-06-23T11:02:54.601Z,24.05
2017-06-23T11:03:54.643Z,24.04
2017-06-23T11:04:55.070Z,24.02
2017-06-23T11:05:55.041Z,24.16
2017-06-23T11:06:55.085Z,24.07
2017-06-23T11:07:54.818Z,24.23
2017-06-23T11:08:54.858Z,24.2
2017-06-23T11:09:54.904Z,24.23
2017-06-23T11:10:54.960Z,24.2
2017-06-23T11:11:55.000Z,24.19
2017-06-23T11:12:55.046Z,24.32
2017-06-23T11:13:55.097Z,24.32
2017-06-23T11:14:55.446Z,24.34
2017-06-23T11:15:55.178Z,24.41
2017-06-23T11:16:55.529Z,24.53
2017-06-23T11:17:55.271Z,24.52
2017-06-23T11:18:55.318Z,24.53
2017-06-23T11:19:55.358Z,24.61
2017-06-23T11:20:55.410Z,24.63
2017-06-23T11:21:55.449Z,24.71
2017-06-23T11:22:55.807Z,24.79
2017-06-23T11:23:55.862Z,24.82
2017-06-23T11:24:55.596Z,24.75
2017-06-23T11:25:55.638Z,24.76
2017-06-23T11:26:55.682Z,24.71
2017-06-23T11:27:55.736Z,24.68
2017-06-23T11:28:55.764Z,24.59
2017-06-23T11:29:56.122Z,24.67
2017-06-23T11:30:56.161Z,24.71
2017-06-23T11:31:55.910Z,24.9
2017-06-23T11:32:55.952Z,24.83
2017-06-23T11:33:55.992Z,24.79
2017-06-23T11:34:56.036Z,24.73
2017-06-23T11:35:56.083Z,24.75
2017-06-23T11:36:56.441Z,24.79
2017-06-23T11:37:56.489Z,24.75
2017-06-23T11:38:56.215Z,24.9
2017-06-23T11:39:56.264Z,24.9
2017-06-23T11:40:56.306Z,24.98
2017-06-23T11:41:56.659Z,25.01
2017-06-23T11:42:56.396Z,24.98
2017-06-23T11:43:56.748Z,25.02
2017-06-23T11:44:56.484Z,25.07
2017-06-23T11:45:56.530Z,25.25
2017-06-23T11:46:56.575Z,25.1
2017-06-23T11:47:56.620Z,25.2
2017-06-23T11:48:56.664Z,25.24
2017-06-23T11:49:56.711Z,25.22
2017-06-23T11:50:56.753Z,25.19
2017-06-23T11:51:56.805Z,25.19
2017-06-23T11:52:56.844Z,25.24
2017-06-23T11:53:56.882Z,25.22
2017-06-23T11:54:56.928Z,25.1
2017-06-23T11:55:57.280Z,25.25
2017-06-23T11:56:57.027Z,25.19
2017-06-23T11:57:57.060Z,25.25
2017-06-23T11:58:57.112Z,25.27
2017-06-23T11:59:57.153Z,25.39
2017-06-23T12:00:57.194Z,25.38
2017-06-23T12:01:57.239Z,25.38
2017-06-23T12:02:57.291Z,25.46
2017-06-23T12:03:57.634Z,25.49
2017-06-23T12:04:57.382Z,25.47
2017-06-23T12:05:57.430Z,25.49
2017-06-23T12:06:57.471Z,25.62
2017-06-23T12:07:57.827Z,25.56
2017-06-23T12:08:57.861Z,25.64
2017-06-23T12:09:57.601Z,25.64
2017-06-23T12:10:57.642Z,25.67
2017-06-23T12:11:57.688Z,25.86
2017-06-23T12:12:57.738Z,25.87
2017-06-23T12:13:58.108Z,25.84
2017-06-23T12:14:57.821Z,25.77
2017-06-23T12:15:57.875Z,25.79
2017-06-23T12:16:57.937Z,25.86
2017-06-23T12:17:57.962Z,25.8
2017-06-23T12:18:58.307Z,25.93
2017-06-23T12:19:58.068Z,25.93
2017-06-23T12:20:58.095Z,26.09
2017-06-23T12:21:58.140Z,26.01
2017-06-23T12:22:58.181Z,26.02
2017-06-23T12:23:58.536Z,26.17
2017-06-23T12:24:58.280Z,26.15
2017-06-23T12:25:58.656Z,26.32
2017-06-23T12:26:58.363Z,26.2
2017-06-23T12:27:58.418Z,26.37
2017-06-23T12:28:58.451Z,26.28
2017-06-23T12:29:58.812Z,26.27
2017-06-23T12:30:58.857Z,26.31
2017-06-23T12:31:58.591Z,26.29
2017-06-23T12:32:58.641Z,26.18
2017-06-23T12:33:58.687Z,26.15
2017-06-23T12:34:58.731Z,26.09
2017-06-23T12:35:58.775Z,26.11
2017-06-23T12:36:58.814Z,26.08
2017-06-23T12:37:58.859Z,25.91
2017-06-23T12:39:00.755Z,25.83
2017-06-23T12:40:01.247Z,25.94
2017-06-23T12:40:59.983Z,25.87
2017-06-23T12:41:59.046Z,25.89
2017-06-23T12:42:59.087Z,25.84
2017-06-23T12:43:59.127Z,25.8
2017-06-23T12:44:59.489Z,25.82
2017-06-23T12:45:59.223Z,25.87
2017-06-23T12:46:59.264Z,25.79
2017-06-23T12:47:59.310Z,25.93
2017-06-23T12:48:59.353Z,25.89
2017-06-23T12:49:59.396Z,25.91
2017-06-23T12:50:59.452Z,25.97
2017-06-23T12:51:59.487Z,25.93
2017-06-23T12:53:01.224Z,26.09
2017-06-23T12:53:59.575Z,26.08
2017-06-23T12:54:59.619Z,26.01
2017-06-23T12:55:59.987Z,26.04